In Rescue
 
Open Full Screen Window  High Contrast Mode
Wind Gusting 00 knots
03
November 29, 2022 8:02 AM CST
Weather Information
Wind Direction
  020 °
Wind Speed
  03 kt (3 mph)
Wind Gust
  00 kt (0 mph)
Altimeter
29.60 in
Visibility
7 SM
Temperature
00° C
32° F
Dewpoint
00° C
32° F
Humidity
100%
1hr Rain Fall
00.00 in.
24hr Rain Fall
00.00 in.
Sky Condition
Overcast @ 500 ft
IFR

METAR KFKA 291402Z AUTO 02003KT 7SM OVC005 00/00 A2960 RMK AO2 T00031005

FAA Disclaimer: The data displayed is for advisory purposes only and is not to be used for flight planning or operations.